sensor_id;sensor_type;location;lat;lon;timestamp;P1;durP1;ratioP1;P2;durP2;ratioP2
8626;SDS011;4351;51.422;6.794;2023-04-24T00:00:12;0.97;;;0.60;;
8626;SDS011;4351;51.422;6.794;2023-04-24T00:02:42;1.10;;;0.77;;
8626;SDS011;4351;51.422;6.794;2023-04-24T00:05:14;1.10;;;0.80;;
8626;SDS011;4351;51.422;6.794;2023-04-24T00:07:42;1.83;;;0.90;;
8626;SDS011;4351;51.422;6.794;2023-04-24T00:10:11;1.23;;;0.70;;
8626;SDS011;4351;51.422;6.794;2023-04-24T00:12:39;1.47;;;0.80;;
8626;SDS011;4351;51.422;6.794;2023-04-24T00:15:08;1.23;;;0.90;;
8626;SDS011;4351;51.422;6.794;2023-04-24T00:17:36;1.87;;;1.20;;
8626;SDS011;4351;51.422;6.794;2023-04-24T00:20:07;1.23;;;1.00;;
8626;SDS011;4351;51.422;6.794;2023-04-24T00:22:36;1.77;;;1.10;;
8626;SDS011;4351;51.422;6.794;2023-04-24T00:25:04;4.30;;;1.20;;
8626;SDS011;4351;51.422;6.794;2023-04-24T00:27:33;3.60;;;1.00;;
8626;SDS011;4351;51.422;6.794;2023-04-24T00:30:03;1.47;;;1.10;;
8626;SDS011;4351;51.422;6.794;2023-04-24T00:32:32;2.53;;;1.10;;
8626;SDS011;4351;51.422;6.794;2023-04-24T00:35:00;1.40;;;1.10;;
8626;SDS011;4351;51.422;6.794;2023-04-24T00:37:29;1.40;;;1.20;;
8626;SDS011;4351;51.422;6.794;2023-04-24T00:39:57;2.40;;;1.23;;
8626;SDS011;4351;51.422;6.794;2023-04-24T00:42:25;3.10;;;1.83;;
8626;SDS011;4351;51.422;6.794;2023-04-24T00:44:52;2.83;;;2.03;;
8626;SDS011;4351;51.422;6.794;2023-04-24T00:47:21;4.30;;;2.27;;
8626;SDS011;4351;51.422;6.794;2023-04-24T00:49:49;4.73;;;2.47;;
8626;SDS011;4351;51.422;6.794;2023-04-24T00:52:18;4.43;;;1.93;;
8626;SDS011;4351;51.422;6.794;2023-04-24T00:54:48;5.00;;;2.40;;
8626;SDS011;4351;51.422;6.794;2023-04-24T00:57:16;4.33;;;2.73;;
8626;SDS011;4351;51.422;6.794;2023-04-24T00:59:45;6.27;;;3.50;;
8626;SDS011;4351;51.422;6.794;2023-04-24T01:02:13;9.13;;;4.60;;
8626;SDS011;4351;51.422;6.794;2023-04-24T01:04:41;8.60;;;5.03;;
8626;SDS011;4351;51.422;6.794;2023-04-24T01:07:11;7.07;;;4.17;;
8626;SDS011;4351;51.422;6.794;2023-04-24T01:09:40;8.30;;;4.40;;
8626;SDS011;4351;51.422;6.794;2023-04-24T01:12:10;5.60;;;3.90;;
8626;SDS011;4351;51.422;6.794;2023-04-24T01:14:38;7.60;;;5.10;;
8626;SDS011;4351;51.422;6.794;2023-04-24T01:17:07;12.03;;;6.53;;
8626;SDS011;4351;51.422;6.794;2023-04-24T01:19:36;12.93;;;6.63;;
8626;SDS011;4351;51.422;6.794;2023-04-24T01:22:08;8.93;;;6.20;;
8626;SDS011;4351;51.422;6.794;2023-04-24T01:24:38;12.07;;;6.20;;
8626;SDS011;4351;51.422;6.794;2023-04-24T01:27:06;9.47;;;6.40;;
8626;SDS011;4351;51.422;6.794;2023-04-24T01:29:35;9.93;;;5.97;;
8626;SDS011;4351;51.422;6.794;2023-04-24T01:32:03;7.07;;;5.20;;
8626;SDS011;4351;51.422;6.794;2023-04-24T01:34:32;9.00;;;6.03;;
8626;SDS011;4351;51.422;6.794;2023-04-24T01:37:01;10.00;;;5.80;;
8626;SDS011;4351;51.422;6.794;2023-04-24T01:39:31;6.57;;;5.07;;
8626;SDS011;4351;51.422;6.794;2023-04-24T01:41:59;5.80;;;4.37;;
8626;SDS011;4351;51.422;6.794;2023-04-24T01:44:27;5.10;;;4.07;;
8626;SDS011;4351;51.422;6.794;2023-04-24T01:46:55;6.20;;;4.23;;
8626;SDS011;4351;51.422;6.794;2023-04-24T01:49:23;5.10;;;3.73;;
8626;SDS011;4351;51.422;6.794;2023-04-24T01:51:51;6.60;;;4.50;;
8626;SDS011;4351;51.422;6.794;2023-04-24T01:54:19;5.80;;;4.70;;
8626;SDS011;4351;51.422;6.794;2023-04-24T01:56:48;4.93;;;3.90;;
8626;SDS011;4351;51.422;6.794;2023-04-24T01:59:16;6.73;;;4.47;;
8626;SDS011;4351;51.422;6.794;2023-04-24T02:01:44;5.23;;;4.47;;
8626;SDS011;4351;51.422;6.794;2023-04-24T02:04:12;10.80;;;4.87;;
8626;SDS011;4351;51.422;6.794;2023-04-24T02:06:41;7.50;;;5.40;;
8626;SDS011;4351;51.422;6.794;2023-04-24T02:09:09;9.00;;;5.97;;
8626;SDS011;4351;51.422;6.794;2023-04-24T02:11:38;8.77;;;5.83;;
8626;SDS011;4351;51.422;6.794;2023-04-24T02:14:07;8.43;;;5.93;;
8626;SDS011;4351;51.422;6.794;2023-04-24T02:16:35;10.10;;;6.63;;
8626;SDS011;4351;51.422;6.794;2023-04-24T02:19:03;8.97;;;5.70;;
8626;SDS011;4351;51.422;6.794;2023-04-24T02:21:31;10.60;;;6.33;;
8626;SDS011;4351;51.422;6.794;2023-04-24T02:24:00;12.77;;;7.00;;
8626;SDS011;4351;51.422;6.794;2023-04-24T02:26:28;9.27;;;6.40;;
8626;SDS011;4351;51.422;6.794;2023-04-24T02:28:58;11.27;;;6.80;;
8626;SDS011;4351;51.422;6.794;2023-04-24T02:31:27;10.63;;;7.03;;
8626;SDS011;4351;51.422;6.794;2023-04-24T02:33:55;12.83;;;7.70;;
8626;SDS011;4351;51.422;6.794;2023-04-24T02:36:23;12.57;;;8.10;;
8626;SDS011;4351;51.422;6.794;2023-04-24T02:38:50;14.90;;;8.43;;
8626;SDS011;4351;51.422;6.794;2023-04-24T02:41:18;13.90;;;8.33;;
8626;SDS011;4351;51.422;6.794;2023-04-24T02:43:47;16.67;;;9.30;;
8626;SDS011;4351;51.422;6.794;2023-04-24T02:46:15;17.53;;;9.77;;
8626;SDS011;4351;51.422;6.794;2023-04-24T02:48:45;14.90;;;7.97;;
8626;SDS011;4351;51.422;6.794;2023-04-24T02:51:13;14.77;;;9.20;;
8626;SDS011;4351;51.422;6.794;2023-04-24T02:53:40;15.70;;;9.13;;
8626;SDS011;4351;51.422;6.794;2023-04-24T02:56:08;14.57;;;9.23;;
8626;SDS011;4351;51.422;6.794;2023-04-24T02:58:38;16.50;;;9.33;;
8626;SDS011;4351;51.422;6.794;2023-04-24T03:01:06;14.87;;;9.07;;
8626;SDS011;4351;51.422;6.794;2023-04-24T03:03:34;19.50;;;8.63;;
8626;SDS011;4351;51.422;6.794;2023-04-24T03:06:03;15.10;;;9.60;;
8626;SDS011;4351;51.422;6.794;2023-04-24T03:08:32;13.23;;;9.20;;
8626;SDS011;4351;51.422;6.794;2023-04-24T03:11:00;15.40;;;10.03;;
8626;SDS011;4351;51.422;6.794;2023-04-24T03:13:28;15.77;;;9.73;;
8626;SDS011;4351;51.422;6.794;2023-04-24T03:15:55;13.20;;;9.23;;
8626;SDS011;4351;51.422;6.794;2023-04-24T03:18:23;16.47;;;9.73;;
8626;SDS011;4351;51.422;6.794;2023-04-24T03:20:51;14.20;;;10.07;;
8626;SDS011;4351;51.422;6.794;2023-04-24T03:23:21;16.17;;;10.30;;
8626;SDS011;4351;51.422;6.794;2023-04-24T03:25:49;14.13;;;9.33;;
8626;SDS011;4351;51.422;6.794;2023-04-24T03:28:19;16.63;;;10.13;;
8626;SDS011;4351;51.422;6.794;2023-04-24T03:30:53;19.73;;;10.60;;
8626;SDS011;4351;51.422;6.794;2023-04-24T03:33:22;17.30;;;10.50;;
8626;SDS011;4351;51.422;6.794;2023-04-24T03:35:57;17.60;;;10.50;;
8626;SDS011;4351;51.422;6.794;2023-04-24T03:38:36;16.13;;;10.17;;
8626;SDS011;4351;51.422;6.794;2023-04-24T03:41:27;16.70;;;9.87;;
8626;SDS011;4351;51.422;6.794;2023-04-24T03:44:07;16.50;;;10.30;;
8626;SDS011;4351;51.422;6.794;2023-04-24T03:46:35;20.33;;;10.57;;
8626;SDS011;4351;51.422;6.794;2023-04-24T03:49:03;14.50;;;9.40;;
8626;SDS011;4351;51.422;6.794;2023-04-24T03:51:34;16.33;;;10.43;;
8626;SDS011;4351;51.422;6.794;2023-04-24T03:54:13;19.20;;;10.33;;
8626;SDS011;4351;51.422;6.794;2023-04-24T03:56:41;16.40;;;10.50;;
8626;SDS011;4351;51.422;6.794;2023-04-24T03:59:09;18.53;;;9.77;;
8626;SDS011;4351;51.422;6.794;2023-04-24T04:01:39;16.70;;;9.27;;
8626;SDS011;4351;51.422;6.794;2023-04-24T04:04:13;20.10;;;10.70;;
8626;SDS011;4351;51.422;6.794;2023-04-24T04:06:43;19.37;;;9.63;;
8626;SDS011;4351;51.422;6.794;2023-04-24T04:09:14;16.10;;;10.03;;
8626;SDS011;4351;51.422;6.794;2023-04-24T04:11:42;14.10;;;9.27;;
8626;SDS011;4351;51.422;6.794;2023-04-24T04:14:11;14.63;;;9.30;;
8626;SDS011;4351;51.422;6.794;2023-04-24T04:16:42;20.43;;;9.37;;
8626;SDS011;4351;51.422;6.794;2023-04-24T04:19:11;15.73;;;9.27;;
8626;SDS011;4351;51.422;6.794;2023-04-24T04:21:39;13.07;;;8.57;;
8626;SDS011;4351;51.422;6.794;2023-04-24T04:24:24;14.60;;;9.03;;
8626;SDS011;4351;51.422;6.794;2023-04-24T04:26:53;13.70;;;9.23;;
8626;SDS011;4351;51.422;6.794;2023-04-24T04:29:33;16.47;;;9.40;;
8626;SDS011;4351;51.422;6.794;2023-04-24T04:32:05;11.73;;;8.40;;
8626;SDS011;4351;51.422;6.794;2023-04-24T04:34:33;13.20;;;9.17;;
8626;SDS011;4351;51.422;6.794;2023-04-24T04:37:05;16.37;;;8.93;;
8626;SDS011;4351;51.422;6.794;2023-04-24T04:40:08;15.47;;;9.50;;
8626;SDS011;4351;51.422;6.794;2023-04-24T04:42:47;15.43;;;8.67;;
8626;SDS011;4351;51.422;6.794;2023-04-24T04:45:21;12.10;;;8.03;;
8626;SDS011;4351;51.422;6.794;2023-04-24T04:48:10;14.43;;;8.67;;
8626;SDS011;4351;51.422;6.794;2023-04-24T04:50:40;13.10;;;8.17;;
8626;SDS011;4351;51.422;6.794;2023-04-24T04:53:09;17.10;;;8.80;;
8626;SDS011;4351;51.422;6.794;2023-04-24T04:55:39;12.00;;;8.20;;
8626;SDS011;4351;51.422;6.794;2023-04-24T04:58:10;9.60;;;7.90;;
8626;SDS011;4351;51.422;6.794;2023-04-24T05:00:38;12.23;;;7.83;;
8626;SDS011;4351;51.422;6.794;2023-04-24T05:03:15;12.03;;;8.10;;
8626;SDS011;4351;51.422;6.794;2023-04-24T05:05:50;12.80;;;8.00;;
8626;SDS011;4351;51.422;6.794;2023-04-24T05:08:18;12.03;;;8.13;;
8626;SDS011;4351;51.422;6.794;2023-04-24T05:10:54;11.07;;;7.30;;
8626;SDS011;4351;51.422;6.794;2023-04-24T05:13:25;11.97;;;7.43;;
8626;SDS011;4351;51.422;6.794;2023-04-24T05:16:14;11.00;;;7.80;;
8626;SDS011;4351;51.422;6.794;2023-04-24T05:18:42;11.73;;;7.33;;
8626;SDS011;4351;51.422;6.794;2023-04-24T05:21:13;12.47;;;8.67;;
8626;SDS011;4351;51.422;6.794;2023-04-24T05:23:44;9.30;;;7.50;;
8626;SDS011;4351;51.422;6.794;2023-04-24T05:26:19;11.23;;;8.83;;
8626;SDS011;4351;51.422;6.794;2023-04-24T05:28:49;12.63;;;8.50;;
8626;SDS011;4351;51.422;6.794;2023-04-24T05:31:17;14.23;;;8.63;;
8626;SDS011;4351;51.422;6.794;2023-04-24T05:33:46;13.47;;;9.03;;
8626;SDS011;4351;51.422;6.794;2023-04-24T05:36:14;12.57;;;8.77;;
8626;SDS011;4351;51.422;6.794;2023-04-24T05:38:41;14.50;;;8.80;;
8626;SDS011;4351;51.422;6.794;2023-04-24T05:41:09;13.60;;;9.03;;
8626;SDS011;4351;51.422;6.794;2023-04-24T05:43:38;13.27;;;9.53;;
8626;SDS011;4351;51.422;6.794;2023-04-24T05:46:06;11.67;;;8.00;;
8626;SDS011;4351;51.422;6.794;2023-04-24T05:48:34;12.73;;;9.20;;
8626;SDS011;4351;51.422;6.794;2023-04-24T05:51:03;14.10;;;8.77;;
8626;SDS011;4351;51.422;6.794;2023-04-24T05:53:31;13.73;;;8.77;;
8626;SDS011;4351;51.422;6.794;2023-04-24T05:55:59;13.57;;;8.47;;
8626;SDS011;4351;51.422;6.794;2023-04-24T05:58:27;12.43;;;7.97;;
8626;SDS011;4351;51.422;6.794;2023-04-24T06:00:56;12.13;;;8.40;;
8626;SDS011;4351;51.422;6.794;2023-04-24T06:03:25;11.03;;;7.97;;
8626;SDS011;4351;51.422;6.794;2023-04-24T06:05:53;9.77;;;7.33;;
8626;SDS011;4351;51.422;6.794;2023-04-24T06:08:22;11.07;;;7.93;;
8626;SDS011;4351;51.422;6.794;2023-04-24T06:10:51;9.10;;;6.80;;
8626;SDS011;4351;51.422;6.794;2023-04-24T06:13:20;10.40;;;8.03;;
8626;SDS011;4351;51.422;6.794;2023-04-24T06:16:22;10.80;;;7.57;;
8626;SDS011;4351;51.422;6.794;2023-04-24T06:18:56;9.63;;;7.30;;
8626;SDS011;4351;51.422;6.794;2023-04-24T06:21:24;10.97;;;7.27;;
8626;SDS011;4351;51.422;6.794;2023-04-24T06:23:54;10.47;;;7.43;;
8626;SDS011;4351;51.422;6.794;2023-04-24T06:26:23;9.57;;;7.70;;
8626;SDS011;4351;51.422;6.794;2023-04-24T06:28:52;10.07;;;7.27;;
8626;SDS011;4351;51.422;6.794;2023-04-24T06:31:22;12.30;;;7.93;;
8626;SDS011;4351;51.422;6.794;2023-04-24T06:33:50;9.13;;;6.77;;
8626;SDS011;4351;51.422;6.794;2023-04-24T06:36:18;9.63;;;7.20;;
8626;SDS011;4351;51.422;6.794;2023-04-24T06:38:46;10.47;;;6.83;;
8626;SDS011;4351;51.422;6.794;2023-04-24T06:41:13;8.90;;;6.00;;
8626;SDS011;4351;51.422;6.794;2023-04-24T06:43:42;9.73;;;6.60;;
8626;SDS011;4351;51.422;6.794;2023-04-24T06:46:10;10.00;;;6.53;;
8626;SDS011;4351;51.422;6.794;2023-04-24T06:48:40;10.20;;;6.20;;
8626;SDS011;4351;51.422;6.794;2023-04-24T06:51:08;8.73;;;6.03;;
8626;SDS011;4351;51.422;6.794;2023-04-24T06:53:36;9.77;;;6.40;;
8626;SDS011;4351;51.422;6.794;2023-04-24T06:56:04;11.27;;;7.13;;
8626;SDS011;4351;51.422;6.794;2023-04-24T06:58:32;8.73;;;5.87;;
8626;SDS011;4351;51.422;6.794;2023-04-24T07:01:00;10.17;;;6.27;;
8626;SDS011;4351;51.422;6.794;2023-04-24T07:03:27;7.90;;;5.80;;
8626;SDS011;4351;51.422;6.794;2023-04-24T07:05:57;10.23;;;6.57;;
8626;SDS011;4351;51.422;6.794;2023-04-24T07:08:25;12.17;;;7.13;;
8626;SDS011;4351;51.422;6.794;2023-04-24T07:10:52;9.40;;;6.03;;
8626;SDS011;4351;51.422;6.794;2023-04-24T07:13:20;9.67;;;6.43;;
8626;SDS011;4351;51.422;6.794;2023-04-24T07:15:49;9.63;;;5.83;;
8626;SDS011;4351;51.422;6.794;2023-04-24T07:18:18;10.30;;;5.63;;
8626;SDS011;4351;51.422;6.794;2023-04-24T07:20:48;7.30;;;5.00;;
8626;SDS011;4351;51.422;6.794;2023-04-24T07:23:18;6.57;;;4.47;;
8626;SDS011;4351;51.422;6.794;2023-04-24T07:25:47;7.33;;;4.50;;
8626;SDS011;4351;51.422;6.794;2023-04-24T07:28:15;6.07;;;4.20;;
8626;SDS011;4351;51.422;6.794;2023-04-24T07:30:46;5.30;;;3.23;;
8626;SDS011;4351;51.422;6.794;2023-04-24T07:33:13;3.23;;;2.30;;
8626;SDS011;4351;51.422;6.794;2023-04-24T07:35:41;2.33;;;1.93;;
8626;SDS011;4351;51.422;6.794;2023-04-24T07:38:09;3.97;;;2.00;;
8626;SDS011;4351;51.422;6.794;2023-04-24T07:40:39;2.87;;;1.37;;
8626;SDS011;4351;51.422;6.794;2023-04-24T07:43:06;4.03;;;1.10;;
8626;SDS011;4351;51.422;6.794;2023-04-24T07:45:34;1.87;;;1.30;;
8626;SDS011;4351;51.422;6.794;2023-04-24T07:48:04;2.83;;;1.73;;
8626;SDS011;4351;51.422;6.794;2023-04-24T07:50:32;4.47;;;2.30;;
8626;SDS011;4351;51.422;6.794;2023-04-24T07:53:01;5.73;;;2.70;;
8626;SDS011;4351;51.422;6.794;2023-04-24T07:55:28;4.63;;;2.50;;
8626;SDS011;4351;51.422;6.794;2023-04-24T07:57:58;5.63;;;2.17;;
8626;SDS011;4351;51.422;6.794;2023-04-24T08:00:25;3.27;;;2.33;;
8626;SDS011;4351;51.422;6.794;2023-04-24T08:02:53;2.23;;;1.50;;
8626;SDS011;4351;51.422;6.794;2023-04-24T08:05:21;2.63;;;1.37;;
8626;SDS011;4351;51.422;6.794;2023-04-24T08:07:52;2.37;;;1.50;;
8626;SDS011;4351;51.422;6.794;2023-04-24T08:10:20;4.47;;;1.63;;
8626;SDS011;4351;51.422;6.794;2023-04-24T08:12:48;2.37;;;1.43;;
8626;SDS011;4351;51.422;6.794;2023-04-24T08:15:18;2.57;;;1.80;;
8626;SDS011;4351;51.422;6.794;2023-04-24T08:17:46;5.03;;;1.77;;
8626;SDS011;4351;51.422;6.794;2023-04-24T08:20:14;2.40;;;1.57;;
8626;SDS011;4351;51.422;6.794;2023-04-24T08:22:42;2.50;;;1.60;;
8626;SDS011;4351;51.422;6.794;2023-04-24T08:25:13;2.43;;;1.50;;
8626;SDS011;4351;51.422;6.794;2023-04-24T08:27:41;2.77;;;1.40;;
8626;SDS011;4351;51.422;6.794;2023-04-24T08:30:09;1.67;;;1.50;;
8626;SDS011;4351;51.422;6.794;2023-04-24T08:32:38;1.83;;;1.50;;
8626;SDS011;4351;51.422;6.794;2023-04-24T08:35:07;2.33;;;1.63;;
8626;SDS011;4351;51.422;6.794;2023-04-24T08:37:36;2.30;;;1.50;;
8626;SDS011;4351;51.422;6.794;2023-04-24T08:40:05;3.10;;;1.50;;
8626;SDS011;4351;51.422;6.794;2023-04-24T08:42:39;3.23;;;1.40;;
8626;SDS011;4351;51.422;6.794;2023-04-24T08:45:11;3.47;;;1.03;;
8626;SDS011;4351;51.422;6.794;2023-04-24T08:47:42;1.13;;;0.90;;
8626;SDS011;4351;51.422;6.794;2023-04-24T08:50:10;2.37;;;1.10;;
8626;SDS011;4351;51.422;6.794;2023-04-24T08:52:39;2.00;;;0.90;;
8626;SDS011;4351;51.422;6.794;2023-04-24T08:55:07;1.37;;;0.90;;
8626;SDS011;4351;51.422;6.794;2023-04-24T08:57:35;1.93;;;0.90;;
8626;SDS011;4351;51.422;6.794;2023-04-24T09:00:06;2.87;;;1.13;;
8626;SDS011;4351;51.422;6.794;2023-04-24T09:02:39;3.10;;;1.00;;
8626;SDS011;4351;51.422;6.794;2023-04-24T09:05:12;5.10;;;2.30;;
8626;SDS011;4351;51.422;6.794;2023-04-24T09:07:40;4.53;;;3.10;;
8626;SDS011;4351;51.422;6.794;2023-04-24T09:10:12;5.93;;;4.10;;
8626;SDS011;4351;51.422;6.794;2023-04-24T09:12:40;7.43;;;5.13;;
8626;SDS011;4351;51.422;6.794;2023-04-24T09:15:09;8.33;;;5.40;;
8626;SDS011;4351;51.422;6.794;2023-04-24T09:17:38;8.03;;;6.00;;
8626;SDS011;4351;51.422;6.794;2023-04-24T09:20:08;8.33;;;5.97;;
8626;SDS011;4351;51.422;6.794;2023-04-24T09:22:36;10.07;;;6.40;;
8626;SDS011;4351;51.422;6.794;2023-04-24T09:25:04;8.07;;;6.23;;
8626;SDS011;4351;51.422;6.794;2023-04-24T09:27:33;8.40;;;5.43;;
8626;SDS011;4351;51.422;6.794;2023-04-24T09:30:02;7.93;;;5.60;;
8626;SDS011;4351;51.422;6.794;2023-04-24T09:32:30;6.83;;;4.57;;
8626;SDS011;4351;51.422;6.794;2023-04-24T09:35:05;7.03;;;4.57;;
8626;SDS011;4351;51.422;6.794;2023-04-24T09:37:39;6.07;;;4.33;;
8626;SDS011;4351;51.422;6.794;2023-04-24T09:40:10;7.60;;;4.73;;
8626;SDS011;4351;51.422;6.794;2023-04-24T09:42:39;7.63;;;4.90;;
8626;SDS011;4351;51.422;6.794;2023-04-24T09:45:11;8.07;;;5.10;;
8626;SDS011;4351;51.422;6.794;2023-04-24T09:47:42;8.87;;;5.23;;
8626;SDS011;4351;51.422;6.794;2023-04-24T09:50:13;14.33;;;6.07;;
8626;SDS011;4351;51.422;6.794;2023-04-24T09:52:44;8.20;;;5.27;;
8626;SDS011;4351;51.422;6.794;2023-04-24T09:55:15;10.67;;;5.17;;
8626;SDS011;4351;51.422;6.794;2023-04-24T09:57:51;9.23;;;5.53;;
8626;SDS011;4351;51.422;6.794;2023-04-24T10:00:24;14.90;;;7.67;;
8626;SDS011;4351;51.422;6.794;2023-04-24T10:02:57;22.63;;;9.97;;
8626;SDS011;4351;51.422;6.794;2023-04-24T10:05:31;16.87;;;8.40;;
8626;SDS011;4351;51.422;6.794;2023-04-24T10:08:00;21.80;;;10.37;;
8626;SDS011;4351;51.422;6.794;2023-04-24T10:10:29;19.87;;;9.97;;
8626;SDS011;4351;51.422;6.794;2023-04-24T10:12:58;13.07;;;7.83;;
8626;SDS011;4351;51.422;6.794;2023-04-24T10:15:27;17.77;;;8.70;;
8626;SDS011;4351;51.422;6.794;2023-04-24T10:17:54;22.90;;;8.63;;
8626;SDS011;4351;51.422;6.794;2023-04-24T10:20:26;16.80;;;8.00;;
8626;SDS011;4351;51.422;6.794;2023-04-24T10:22:58;15.93;;;7.10;;
8626;SDS011;4351;51.422;6.794;2023-04-24T10:25:27;16.37;;;6.60;;
8626;SDS011;4351;51.422;6.794;2023-04-24T10:27:57;16.03;;;5.53;;
8626;SDS011;4351;51.422;6.794;2023-04-24T10:30:26;12.20;;;5.70;;
8626;SDS011;4351;51.422;6.794;2023-04-24T10:32:55;20.50;;;6.70;;
8626;SDS011;4351;51.422;6.794;2023-04-24T10:35:23;26.53;;;8.70;;
8626;SDS011;4351;51.422;6.794;2023-04-24T10:37:54;20.67;;;7.10;;
8626;SDS011;4351;51.422;6.794;2023-04-24T10:40:27;18.03;;;7.63;;
8626;SDS011;4351;51.422;6.794;2023-04-24T10:42:58;12.93;;;5.30;;
8626;SDS011;4351;51.422;6.794;2023-04-24T10:45:26;12.53;;;5.13;;
8626;SDS011;4351;51.422;6.794;2023-04-24T10:47:58;14.67;;;4.80;;
8626;SDS011;4351;51.422;6.794;2023-04-24T10:50:42;12.83;;;4.83;;
8626;SDS011;4351;51.422;6.794;2023-04-24T10:53:15;12.10;;;4.37;;
8626;SDS011;4351;51.422;6.794;2023-04-24T10:55:45;14.53;;;5.13;;
8626;SDS011;4351;51.422;6.794;2023-04-24T10:58:14;13.63;;;5.20;;
8626;SDS011;4351;51.422;6.794;2023-04-24T11:00:43;13.20;;;5.13;;
8626;SDS011;4351;51.422;6.794;2023-04-24T11:03:25;12.63;;;5.17;;
8626;SDS011;4351;51.422;6.794;2023-04-24T11:05:55;18.50;;;5.97;;
8626;SDS011;4351;51.422;6.794;2023-04-24T11:08:26;14.43;;;6.60;;
8626;SDS011;4351;51.422;6.794;2023-04-24T11:10:57;15.83;;;6.17;;
8626;SDS011;4351;51.422;6.794;2023-04-24T11:14:00;17.27;;;6.43;;
8626;SDS011;4351;51.422;6.794;2023-04-24T11:16:29;16.57;;;5.93;;
8626;SDS011;4351;51.422;6.794;2023-04-24T11:19:01;13.37;;;5.73;;
8626;SDS011;4351;51.422;6.794;2023-04-24T11:21:39;10.73;;;5.03;;
8626;SDS011;4351;51.422;6.794;2023-04-24T11:24:24;11.97;;;4.40;;
8626;SDS011;4351;51.422;6.794;2023-04-24T11:26:53;8.13;;;3.77;;
8626;SDS011;4351;51.422;6.794;2023-04-24T11:29:22;10.70;;;3.83;;
8626;SDS011;4351;51.422;6.794;2023-04-24T11:32:14;10.93;;;5.50;;
8626;SDS011;4351;51.422;6.794;2023-04-24T11:34:52;8.07;;;3.47;;
8626;SDS011;4351;51.422;6.794;2023-04-24T11:37:22;9.63;;;3.77;;
8626;SDS011;4351;51.422;6.794;2023-04-24T11:39:52;6.37;;;3.10;;
8626;SDS011;4351;51.422;6.794;2023-04-24T11:42:21;5.67;;;3.17;;
8626;SDS011;4351;51.422;6.794;2023-04-24T11:44:51;10.90;;;3.50;;
8626;SDS011;4351;51.422;6.794;2023-04-24T11:47:20;10.97;;;3.57;;
8626;SDS011;4351;51.422;6.794;2023-04-24T11:49:50;9.10;;;3.40;;
8626;SDS011;4351;51.422;6.794;2023-04-24T11:52:18;11.87;;;3.67;;
8626;SDS011;4351;51.422;6.794;2023-04-24T11:54:47;7.80;;;3.43;;
8626;SDS011;4351;51.422;6.794;2023-04-24T11:57:18;15.23;;;4.30;;
8626;SDS011;4351;51.422;6.794;2023-04-24T11:59:48;10.63;;;5.30;;
8626;SDS011;4351;51.422;6.794;2023-04-24T12:02:20;10.87;;;4.20;;
8626;SDS011;4351;51.422;6.794;2023-04-24T12:04:49;12.13;;;4.27;;
8626;SDS011;4351;51.422;6.794;2023-04-24T12:07:18;12.57;;;4.60;;
8626;SDS011;4351;51.422;6.794;2023-04-24T12:09:46;10.70;;;4.60;;
8626;SDS011;4351;51.422;6.794;2023-04-24T12:12:19;10.90;;;4.43;;
8626;SDS011;4351;51.422;6.794;2023-04-24T12:14:47;9.90;;;4.33;;
8626;SDS011;4351;51.422;6.794;2023-04-24T12:17:15;8.60;;;4.00;;
8626;SDS011;4351;51.422;6.794;2023-04-24T12:19:47;14.27;;;4.20;;
8626;SDS011;4351;51.422;6.794;2023-04-24T12:22:16;10.37;;;3.93;;
8626;SDS011;4351;51.422;6.794;2023-04-24T12:25:00;9.40;;;3.60;;
8626;SDS011;4351;51.422;6.794;2023-04-24T12:27:33;5.40;;;2.43;;
8626;SDS011;4351;51.422;6.794;2023-04-24T12:30:02;8.67;;;4.20;;
8626;SDS011;4351;51.422;6.794;2023-04-24T12:32:33;7.90;;;3.23;;
8626;SDS011;4351;51.422;6.794;2023-04-24T12:35:03;5.50;;;2.90;;
8626;SDS011;4351;51.422;6.794;2023-04-24T12:37:34;7.43;;;3.40;;
8626;SDS011;4351;51.422;6.794;2023-04-24T12:40:04;9.40;;;3.93;;
8626;SDS011;4351;51.422;6.794;2023-04-24T12:42:36;13.83;;;4.70;;
8626;SDS011;4351;51.422;6.794;2023-04-24T12:45:11;8.57;;;4.00;;
8626;SDS011;4351;51.422;6.794;2023-04-24T12:47:40;9.73;;;4.20;;
8626;SDS011;4351;51.422;6.794;2023-04-24T12:50:09;8.23;;;3.30;;
8626;SDS011;4351;51.422;6.794;2023-04-24T12:52:42;6.37;;;3.07;;
8626;SDS011;4351;51.422;6.794;2023-04-24T12:55:13;5.73;;;2.30;;
8626;SDS011;4351;51.422;6.794;2023-04-24T12:57:46;5.20;;;2.30;;
8626;SDS011;4351;51.422;6.794;2023-04-24T13:00:15;5.83;;;2.97;;
8626;SDS011;4351;51.422;6.794;2023-04-24T13:02:45;7.03;;;2.07;;
8626;SDS011;4351;51.422;6.794;2023-04-24T13:05:14;5.23;;;2.23;;
8626;SDS011;4351;51.422;6.794;2023-04-24T13:07:43;8.47;;;2.50;;
8626;SDS011;4351;51.422;6.794;2023-04-24T13:10:12;4.30;;;1.63;;
8626;SDS011;4351;51.422;6.794;2023-04-24T13:12:40;5.60;;;2.00;;
8626;SDS011;4351;51.422;6.794;2023-04-24T13:15:13;7.50;;;1.70;;
8626;SDS011;4351;51.422;6.794;2023-04-24T13:17:41;5.63;;;1.40;;
8626;SDS011;4351;51.422;6.794;2023-04-24T13:20:10;4.50;;;1.30;;
8626;SDS011;4351;51.422;6.794;2023-04-24T13:22:38;4.70;;;1.30;;
8626;SDS011;4351;51.422;6.794;2023-04-24T13:25:07;5.63;;;1.60;;
8626;SDS011;4351;51.422;6.794;2023-04-24T13:27:37;5.23;;;1.60;;
8626;SDS011;4351;51.422;6.794;2023-04-24T13:30:06;3.20;;;1.60;;
8626;SDS011;4351;51.422;6.794;2023-04-24T13:32:37;4.27;;;1.50;;
8626;SDS011;4351;51.422;6.794;2023-04-24T13:35:05;6.43;;;1.70;;
8626;SDS011;4351;51.422;6.794;2023-04-24T13:37:34;5.87;;;1.80;;
8626;SDS011;4351;51.422;6.794;2023-04-24T13:40:03;5.40;;;1.70;;
8626;SDS011;4351;51.422;6.794;2023-04-24T13:42:33;9.50;;;1.70;;
8626;SDS011;4351;51.422;6.794;2023-04-24T13:45:02;6.47;;;1.70;;
8626;SDS011;4351;51.422;6.794;2023-04-24T13:47:51;6.43;;;1.80;;
8626;SDS011;4351;51.422;6.794;2023-04-24T13:50:21;6.33;;;1.53;;
8626;SDS011;4351;51.422;6.794;2023-04-24T13:52:49;3.00;;;1.37;;
8626;SDS011;4351;51.422;6.794;2023-04-24T13:55:17;8.30;;;1.60;;
8626;SDS011;4351;51.422;6.794;2023-04-24T13:57:46;4.37;;;1.50;;
8626;SDS011;4351;51.422;6.794;2023-04-24T14:00:15;4.60;;;1.67;;
8626;SDS011;4351;51.422;6.794;2023-04-24T14:02:46;4.60;;;1.60;;
8626;SDS011;4351;51.422;6.794;2023-04-24T14:05:16;4.67;;;1.50;;
8626;SDS011;4351;51.422;6.794;2023-04-24T14:07:45;4.70;;;1.33;;
8626;SDS011;4351;51.422;6.794;2023-04-24T14:10:14;4.07;;;1.33;;
8626;SDS011;4351;51.422;6.794;2023-04-24T14:12:42;3.47;;;1.10;;
8626;SDS011;4351;51.422;6.794;2023-04-24T14:15:10;2.50;;;1.30;;
8626;SDS011;4351;51.422;6.794;2023-04-24T14:17:42;2.63;;;1.20;;
8626;SDS011;4351;51.422;6.794;2023-04-24T14:20:11;2.50;;;1.57;;
8626;SDS011;4351;51.422;6.794;2023-04-24T14:22:41;4.63;;;1.60;;
8626;SDS011;4351;51.422;6.794;2023-04-24T14:25:09;3.27;;;1.47;;
8626;SDS011;4351;51.422;6.794;2023-04-24T14:27:37;4.60;;;1.57;;
8626;SDS011;4351;51.422;6.794;2023-04-24T14:30:07;4.30;;;1.60;;
8626;SDS011;4351;51.422;6.794;2023-04-24T14:32:36;2.27;;;1.30;;
8626;SDS011;4351;51.422;6.794;2023-04-24T14:35:06;1.80;;;1.30;;
8626;SDS011;4351;51.422;6.794;2023-04-24T14:37:35;2.17;;;1.47;;
8626;SDS011;4351;51.422;6.794;2023-04-24T14:40:06;3.00;;;1.20;;
8626;SDS011;4351;51.422;6.794;2023-04-24T14:42:55;3.27;;;1.30;;
8626;SDS011;4351;51.422;6.794;2023-04-24T14:45:24;3.87;;;1.50;;
8626;SDS011;4351;51.422;6.794;2023-04-24T14:47:53;2.67;;;1.40;;
8626;SDS011;4351;51.422;6.794;2023-04-24T14:50:23;3.57;;;1.40;;
8626;SDS011;4351;51.422;6.794;2023-04-24T14:52:56;5.10;;;1.50;;
8626;SDS011;4351;51.422;6.794;2023-04-24T14:55:26;4.20;;;1.43;;
8626;SDS011;4351;51.422;6.794;2023-04-24T14:57:55;7.40;;;1.73;;
8626;SDS011;4351;51.422;6.794;2023-04-24T15:00:23;4.07;;;1.60;;
8626;SDS011;4351;51.422;6.794;2023-04-24T15:02:51;3.87;;;1.80;;
8626;SDS011;4351;51.422;6.794;2023-04-24T15:05:20;3.63;;;1.60;;
8626;SDS011;4351;51.422;6.794;2023-04-24T15:07:50;4.47;;;1.63;;
8626;SDS011;4351;51.422;6.794;2023-04-24T15:10:18;4.57;;;2.30;;
8626;SDS011;4351;51.422;6.794;2023-04-24T15:12:50;3.13;;;1.80;;
8626;SDS011;4351;51.422;6.794;2023-04-24T15:15:19;5.23;;;1.80;;
8626;SDS011;4351;51.422;6.794;2023-04-24T15:17:47;7.40;;;2.87;;
8626;SDS011;4351;51.422;6.794;2023-04-24T15:20:16;5.57;;;3.00;;
8626;SDS011;4351;51.422;6.794;2023-04-24T15:22:45;4.33;;;2.87;;
8626;SDS011;4351;51.422;6.794;2023-04-24T15:25:13;5.30;;;2.07;;